Time;durP1;ratioP1;P1;durP2;ratioP2;P2;SDS_P1;SDS_P2;PMS_P1;PMS_P2;Temp;Humidity;BMP_temperature;BMP_pressure;BME280_temperature;BME280_humidity;BME280_pressure;Samples;Min_cycle;Max_cycle;Signal;HPM_P1;HPM_P2
2023/12/07 00:00:06;;;;;;;82.70;50.88;;;;;;;;;;6096680;23;19996;-83
2023/12/07 00:02:32;;;;;;;96.70;56.63;;;;;;;;;;6096812;23;20064;-83
2023/12/07 00:04:57;;;;;;;61.50;38.20;;;;;;;;;;6096601;23;20009;-84
2023/12/07 00:07:23;;;;;;;90.53;54.63;;;;;;;;;;6097028;23;20113;-84
2023/12/07 00:09:48;;;;;;;50.72;33.40;;;;;;;;;;6096510;23;20006;-83
2023/12/07 00:12:13;;;;;;;56.25;35.78;;;;;;;;;;6122810;23;20036;-83
2023/12/07 00:14:39;;;;;;;110.07;49.78;;;;;;;;;;6096619;23;20036;-83
2023/12/07 00:17:06;;;;;;;82.45;44.28;;;;;;;;;;6122988;23;20025;-83
2023/12/07 00:19:32;;;;;;;63.17;36.90;;;;;;;;;;6095957;23;20005;-83
2023/12/07 00:21:58;;;;;;;99.80;54.38;;;;;;;;;;6096522;23;20002;-83
2023/12/07 00:24:23;;;;;;;107.40;57.03;;;;;;;;;;6096358;23;20037;-83
2023/12/07 00:26:49;;;;;;;211.90;98.03;;;;;;;;;;6122454;23;20452;-83
2023/12/07 00:29:15;;;;;;;114.47;62.28;;;;;;;;;;6096941;23;20001;-83
2023/12/07 00:31:40;;;;;;;119.13;63.38;;;;;;;;;;6072929;23;20009;-83
2023/12/07 00:34:05;;;;;;;122.75;64.80;;;;;;;;;;6096413;23;20034;-82
2023/12/07 00:36:31;;;;;;;187.98;94.38;;;;;;;;;;6098751;23;20014;-83
2023/12/07 00:38:56;;;;;;;111.28;60.50;;;;;;;;;;6128590;23;20010;-83
2023/12/07 00:41:21;;;;;;;113.07;60.25;;;;;;;;;;6097617;23;20038;-83
2023/12/07 00:43:47;;;;;;;111.95;60.35;;;;;;;;;;6095483;23;20014;-82
2023/12/07 00:46:13;;;;;;;111.10;63.20;;;;;;;;;;6093691;23;19995;-83
2023/12/07 00:48:38;;;;;;;84.70;48.33;;;;;;;;;;6093323;23;20022;-83
2023/12/07 00:51:06;;;;;;;93.78;53.58;;;;;;;;;;6093420;23;20392;-84
2023/12/07 00:53:31;;;;;;;117.38;64.30;;;;;;;;;;6091604;23;20002;-83
2023/12/07 00:55:56;;;;;;;108.10;62.92;;;;;;;;;;6093601;23;20022;-83
2023/12/07 00:58:22;;;;;;;120.22;65.10;;;;;;;;;;6091411;23;20089;-84
2023/12/07 01:00:48;;;;;;;91.72;49.60;;;;;;;;;;6091845;23;20030;-84
2023/12/07 01:03:13;;;;;;;72.05;42.05;;;;;;;;;;6092136;23;20038;-83
2023/12/07 01:05:38;;;;;;;74.93;41.20;;;;;;;;;;6090816;23;20012;-83
2023/12/07 01:08:04;;;;;;;77.97;41.95;;;;;;;;;;6090879;23;20030;-84
2023/12/07 01:10:29;;;;;;;71.53;37.22;;;;;;;;;;6091870;23;20431;-84
2023/12/07 01:12:54;;;;;;;64.00;34.17;;;;;;;;;;6090858;23;20335;-83
2023/12/07 01:15:20;;;;;;;54.40;30.00;;;;;;;;;;6091321;23;20082;-83
2023/12/07 01:17:45;;;;;;;48.90;28.95;;;;;;;;;;6092704;23;20081;-84
2023/12/07 01:20:12;;;;;;;40.53;23.65;;;;;;;;;;6092296;23;20082;-84
2023/12/07 01:22:39;;;;;;;37.05;23.15;;;;;;;;;;6092008;23;20014;-83
2023/12/07 01:25:05;;;;;;;35.65;21.65;;;;;;;;;;6091445;23;19998;-83
2023/12/07 01:27:31;;;;;;;33.60;19.23;;;;;;;;;;6090558;23;20081;-84
2023/12/07 01:29:56;;;;;;;32.88;20.10;;;;;;;;;;6091546;23;20430;-84
2023/12/07 01:32:22;;;;;;;38.67;23.00;;;;;;;;;;6091036;23;20053;-83
2023/12/07 01:34:47;;;;;;;38.17;24.00;;;;;;;;;;6091767;23;20006;-84
2023/12/07 01:37:12;;;;;;;40.15;25.35;;;;;;;;;;6091165;23;20013;-83
2023/12/07 01:39:38;;;;;;;70.05;39.20;;;;;;;;;;6091628;23;20066;-83
2023/12/07 01:42:03;;;;;;;53.90;31.83;;;;;;;;;;6091475;23;20014;-82
2023/12/07 01:44:29;;;;;;;63.67;37.88;;;;;;;;;;6092724;23;20033;-84
2023/12/07 01:46:54;;;;;;;56.67;37.05;;;;;;;;;;6091896;23;20007;-84
2023/12/07 01:49:20;;;;;;;63.33;39.47;;;;;;;;;;6092142;23;19995;-83
2023/12/07 01:51:45;;;;;;;52.45;30.20;;;;;;;;;;6090976;23;19997;-84
2023/12/07 01:54:11;;;;;;;43.75;26.10;;;;;;;;;;6091353;23;20002;-82
2023/12/07 01:56:36;;;;;;;32.92;20.52;;;;;;;;;;6090849;23;20057;-84
2023/12/07 01:59:03;;;;;;;30.15;20.38;;;;;;;;;;6090887;23;20006;-84
2023/12/07 02:01:28;;;;;;;34.03;20.10;;;;;;;;;;6091729;23;20343;-83
2023/12/07 02:03:54;;;;;;;26.67;18.20;;;;;;;;;;6092582;23;20008;-83
2023/12/07 02:06:20;;;;;;;29.88;19.90;;;;;;;;;;6093022;23;20281;-84
2023/12/07 02:08:45;;;;;;;24.10;16.38;;;;;;;;;;6092940;23;20419;-84
2023/12/07 02:11:11;;;;;;;20.73;13.32;;;;;;;;;;6093534;23;19995;-83
2023/12/07 02:13:41;;;;;;;26.35;14.75;;;;;;;;;;6091423;23;20026;-84
2023/12/07 02:16:19;;;;;;;19.08;13.73;;;;;;;;;;6085035;23;20009;-83
2023/12/07 02:18:49;;;;;;;22.93;13.13;;;;;;;;;;6084002;23;20002;-83
2023/12/07 02:21:17;;;;;;;26.23;16.20;;;;;;;;;;6091349;23;20271;-85
2023/12/07 02:23:44;;;;;;;19.67;12.93;;;;;;;;;;6091060;23;20006;-83
2023/12/07 02:26:25;;;;;;;26.15;15.93;;;;;;;;;;6090759;23;20048;-84
2023/12/07 02:28:50;;;;;;;18.80;13.05;;;;;;;;;;6092832;23;20023;-84
2023/12/07 02:31:15;;;;;;;18.30;12.60;;;;;;;;;;6090850;23;19999;-83
2023/12/07 02:33:40;;;;;;;21.48;13.77;;;;;;;;;;6090805;23;20073;-83
2023/12/07 02:36:06;;;;;;;23.10;14.13;;;;;;;;;;6090591;23;20010;-84
2023/12/07 02:38:32;;;;;;;23.55;14.77;;;;;;;;;;6090831;23;20002;-83
2023/12/07 02:40:58;;;;;;;25.25;16.02;;;;;;;;;;6090616;23;20010;-82
2023/12/07 02:43:24;;;;;;;23.70;14.18;;;;;;;;;;6091214;23;20003;-82
2023/12/07 02:45:49;;;;;;;25.17;16.13;;;;;;;;;;6092285;23;20001;-83
2023/12/07 02:48:17;;;;;;;22.75;16.10;;;;;;;;;;6091305;23;19999;-83
2023/12/07 02:50:42;;;;;;;32.53;20.67;;;;;;;;;;6090808;23;20427;-83
2023/12/07 02:53:08;;;;;;;27.90;18.80;;;;;;;;;;6092614;23;20060;-82
2023/12/07 02:55:33;;;;;;;23.98;16.60;;;;;;;;;;6090734;23;19999;-83
2023/12/07 02:58:00;;;;;;;30.30;19.77;;;;;;;;;;6092848;23;20146;-83
2023/12/07 03:00:26;;;;;;;32.53;19.85;;;;;;;;;;6090793;23;20006;-83
2023/12/07 03:02:51;;;;;;;28.48;18.60;;;;;;;;;;6069653;23;20032;-83
2023/12/07 03:05:17;;;;;;;29.77;19.15;;;;;;;;;;6098103;23;20018;-83
2023/12/07 03:07:42;;;;;;;30.60;18.67;;;;;;;;;;6098886;23;20352;-83
2023/12/07 03:10:07;;;;;;;31.08;20.65;;;;;;;;;;6097286;23;20006;-83
2023/12/07 03:12:33;;;;;;;37.70;22.88;;;;;;;;;;6092391;23;20006;-83
2023/12/07 03:14:58;;;;;;;32.20;20.95;;;;;;;;;;6090576;23;20010;-83
2023/12/07 03:17:23;;;;;;;38.60;22.85;;;;;;;;;;6090770;23;20367;-83
2023/12/07 03:19:49;;;;;;;40.25;24.48;;;;;;;;;;6090685;23;20006;-85
2023/12/07 03:22:14;;;;;;;56.50;33.42;;;;;;;;;;6092457;23;20006;-83
2023/12/07 03:24:40;;;;;;;55.28;32.65;;;;;;;;;;6066811;23;20010;-83
2023/12/07 03:27:05;;;;;;;56.10;30.83;;;;;;;;;;6090970;23;20002;-82
2023/12/07 03:29:33;;;;;;;49.88;28.75;;;;;;;;;;6060660;23;20321;-84
2023/12/07 03:31:58;;;;;;;48.22;28.23;;;;;;;;;;6036302;23;20083;-84
2023/12/07 03:34:24;;;;;;;58.42;32.35;;;;;;;;;;6060096;23;20026;-83
2023/12/07 03:36:49;;;;;;;81.95;43.03;;;;;;;;;;6037057;23;20089;-83
2023/12/07 03:39:15;;;;;;;57.53;28.90;;;;;;;;;;6036253;23;19999;-83
2023/12/07 03:41:40;;;;;;;71.43;39.28;;;;;;;;;;6061171;23;20025;-84
2023/12/07 03:44:05;;;;;;;87.72;50.10;;;;;;;;;;6036244;23;20585;-82
2023/12/07 03:46:30;;;;;;;74.10;35.72;;;;;;;;;;6036125;23;20003;-83
2023/12/07 03:48:56;;;;;;;80.47;46.55;;;;;;;;;;6036480;23;19995;-84
2023/12/07 03:51:21;;;;;;;81.18;46.00;;;;;;;;;;6060080;23;20379;-83
2023/12/07 03:53:46;;;;;;;56.58;32.28;;;;;;;;;;6036945;23;20034;-82
2023/12/07 03:56:22;;;;;;;46.85;27.92;;;;;;;;;;6060476;23;20011;-83
2023/12/07 03:58:47;;;;;;;47.78;27.00;;;;;;;;;;6061106;23;20011;-83
2023/12/07 04:01:12;;;;;;;53.40;29.00;;;;;;;;;;6078935;23;20435;-83
2023/12/07 04:03:38;;;;;;;53.22;28.50;;;;;;;;;;6093502;23;20010;-84
2023/12/07 04:06:03;;;;;;;69.50;34.78;;;;;;;;;;6092108;23;19994;-85
2023/12/07 04:08:29;;;;;;;72.25;37.10;;;;;;;;;;6093469;23;20002;-83
2023/12/07 04:10:54;;;;;;;48.05;28.20;;;;;;;;;;6092119;23;20427;-84
2023/12/07 04:13:19;;;;;;;48.70;25.63;;;;;;;;;;6091298;23;20003;-84
2023/12/07 04:15:44;;;;;;;54.28;26.45;;;;;;;;;;6091330;23;20034;-83
2023/12/07 04:18:10;;;;;;;49.05;27.90;;;;;;;;;;6091981;23;20654;-83
2023/12/07 04:20:35;;;;;;;46.35;27.02;;;;;;;;;;6094853;23;20002;-83
2023/12/07 04:23:00;;;;;;;50.35;26.38;;;;;;;;;;6094255;23;20029;-83
2023/12/07 04:25:26;;;;;;;41.42;24.85;;;;;;;;;;6093247;23;19998;-84
2023/12/07 04:27:51;;;;;;;47.03;24.80;;;;;;;;;;6092776;23;19998;-83
2023/12/07 04:30:16;;;;;;;39.88;24.75;;;;;;;;;;6093968;23;20002;-83
2023/12/07 04:32:41;;;;;;;76.47;40.47;;;;;;;;;;6068513;23;20010;-84
2023/12/07 04:35:08;;;;;;;65.60;35.83;;;;;;;;;;6092490;23;20034;-84
2023/12/07 04:37:33;;;;;;;47.05;27.17;;;;;;;;;;6092447;23;20006;-84
2023/12/07 04:39:59;;;;;;;43.78;25.40;;;;;;;;;;6068257;23;20339;-83
2023/12/07 04:42:24;;;;;;;44.97;28.40;;;;;;;;;;6092052;23;20019;-83
2023/12/07 04:44:49;;;;;;;36.78;22.67;;;;;;;;;;6093561;23;20002;-84
2023/12/07 04:47:15;;;;;;;37.03;22.50;;;;;;;;;;6092363;23;20032;-83
2023/12/07 04:49:40;;;;;;;36.83;22.45;;;;;;;;;;6091651;23;20079;-85
2023/12/07 04:52:05;;;;;;;33.75;20.80;;;;;;;;;;6091764;23;20002;-83
2023/12/07 04:54:31;;;;;;;29.85;19.98;;;;;;;;;;6092320;23;20003;-85
2023/12/07 04:56:57;;;;;;;32.70;20.48;;;;;;;;;;6093336;23;20037;-83
2023/12/07 04:59:22;;;;;;;32.92;20.77;;;;;;;;;;6091869;23;20006;-84
2023/12/07 05:01:47;;;;;;;33.50;21.38;;;;;;;;;;6092497;23;20010;-85
2023/12/07 05:04:12;;;;;;;35.75;21.08;;;;;;;;;;6092892;23;20007;-84
2023/12/07 05:06:38;;;;;;;35.80;20.60;;;;;;;;;;6093611;23;20061;-83
2023/12/07 05:09:03;;;;;;;33.63;19.77;;;;;;;;;;6091222;23;20002;-84
2023/12/07 05:11:28;;;;;;;30.45;19.52;;;;;;;;;;6091221;23;19998;-84
2023/12/07 05:13:54;;;;;;;30.98;19.80;;;;;;;;;;6091877;23;20013;-84
2023/12/07 05:16:19;;;;;;;32.15;19.65;;;;;;;;;;6091817;23;20510;-84
2023/12/07 05:18:44;;;;;;;34.78;20.50;;;;;;;;;;6091907;23;20002;-84
2023/12/07 05:21:09;;;;;;;33.65;21.42;;;;;;;;;;6092396;23;20026;-85
2023/12/07 05:23:35;;;;;;;40.35;25.60;;;;;;;;;;6092375;23;20013;-83
2023/12/07 05:26:00;;;;;;;32.65;20.25;;;;;;;;;;6092266;23;20002;-83
2023/12/07 05:28:26;;;;;;;65.40;35.72;;;;;;;;;;6094237;23;20423;-85
2023/12/07 05:30:51;;;;;;;114.82;52.90;;;;;;;;;;6103750;23;20043;-84
2023/12/07 05:33:17;;;;;;;47.78;27.73;;;;;;;;;;6105017;23;20023;-86
2023/12/07 05:35:42;;;;;;;74.10;42.35;;;;;;;;;;6111539;23;19995;-84
2023/12/07 05:38:07;;;;;;;50.53;29.48;;;;;;;;;;6111597;23;20013;-84
2023/12/07 05:40:33;;;;;;;32.33;20.42;;;;;;;;;;6095536;23;20006;-84
2023/12/07 05:42:59;;;;;;;23.52;15.90;;;;;;;;;;6098076;23;20006;-84
2023/12/07 05:45:26;;;;;;;26.73;17.40;;;;;;;;;;6098568;23;19997;-85
2023/12/07 05:47:51;;;;;;;20.05;14.02;;;;;;;;;;6099211;23;20085;-84
2023/12/07 05:50:16;;;;;;;19.25;14.07;;;;;;;;;;6100334;23;20343;-84
2023/12/07 05:52:41;;;;;;;19.35;13.75;;;;;;;;;;6098090;23;20442;-85
2023/12/07 05:55:07;;;;;;;21.40;14.00;;;;;;;;;;6097897;23;20032;-85
2023/12/07 05:57:32;;;;;;;19.63;14.25;;;;;;;;;;6123055;23;20430;-85
2023/12/07 05:59:58;;;;;;;21.58;14.77;;;;;;;;;;6097433;23;20025;-86
2023/12/07 06:02:23;;;;;;;22.25;14.75;;;;;;;;;;6097186;23;20006;-85
2023/12/07 06:04:48;;;;;;;46.72;29.63;;;;;;;;;;6097913;23;20322;-84
2023/12/07 06:07:13;;;;;;;88.85;53.78;;;;;;;;;;6097776;23;19997;-86
2023/12/07 06:09:39;;;;;;;104.70;56.88;;;;;;;;;;6127531;23;19998;-84
2023/12/07 06:12:04;;;;;;;116.13;62.55;;;;;;;;;;6106260;23;20430;-84
2023/12/07 06:14:32;;;;;;;82.20;47.10;;;;;;;;;;6123943;23;20334;-85
2023/12/07 06:16:59;;;;;;;93.63;51.80;;;;;;;;;;6097934;23;20026;-84
2023/12/07 06:19:24;;;;;;;105.47;60.33;;;;;;;;;;6097448;23;20002;-86
2023/12/07 06:21:49;;;;;;;131.98;73.88;;;;;;;;;;6096912;23;20005;-85
2023/12/07 06:24:14;;;;;;;123.43;69.72;;;;;;;;;;6097558;23;20402;-84
2023/12/07 06:26:40;;;;;;;165.93;92.32;;;;;;;;;;6122742;23;19998;-86
2023/12/07 06:29:07;;;;;;;168.38;93.47;;;;;;;;;;6100171;23;20057;-84
2023/12/07 06:31:32;;;;;;;198.93;99.18;;;;;;;;;;6097743;23;20062;-85
2023/12/07 06:34:00;;;;;;;184.27;96.30;;;;;;;;;;6096464;23;20022;-84
2023/12/07 06:36:26;;;;;;;225.20;117.60;;;;;;;;;;6096837;23;20039;-84
2023/12/07 06:38:52;;;;;;;293.38;134.90;;;;;;;;;;6097216;23;20009;-84
2023/12/07 06:41:17;;;;;;;226.23;113.85;;;;;;;;;;6121836;23;20443;-85
2023/12/07 06:43:44;;;;;;;227.60;105.72;;;;;;;;;;6096824;23;20005;-84
2023/12/07 06:46:09;;;;;;;251.85;111.80;;;;;;;;;;6122824;23;20505;-84
2023/12/07 06:48:35;;;;;;;499.38;224.50;;;;;;;;;;6121900;23;20002;-85
2023/12/07 06:51:01;;;;;;;200.85;95.07;;;;;;;;;;6096621;23;20521;-83
2023/12/07 06:53:26;;;;;;;234.07;107.38;;;;;;;;;;6098112;23;20006;-83
2023/12/07 06:55:52;;;;;;;311.80;144.35;;;;;;;;;;6098602;23;20005;-85
2023/12/07 06:58:17;;;;;;;181.20;87.90;;;;;;;;;;6097288;23;20431;-85
2023/12/07 07:00:42;;;;;;;102.18;51.03;;;;;;;;;;6095661;23;20013;-84
2023/12/07 07:03:08;;;;;;;84.85;44.10;;;;;;;;;;6095809;23;20331;-85
2023/12/07 07:05:33;;;;;;;62.78;35.28;;;;;;;;;;6096282;23;20024;-85
2023/12/07 07:07:58;;;;;;;53.53;32.00;;;;;;;;;;6095923;23;20049;-85
2023/12/07 07:10:24;;;;;;;43.90;26.85;;;;;;;;;;6096223;23;20002;-85
2023/12/07 07:12:49;;;;;;;45.95;27.70;;;;;;;;;;6095809;23;20025;-85
2023/12/07 07:15:15;;;;;;;61.35;37.80;;;;;;;;;;6096946;23;20024;-86
2023/12/07 07:17:42;;;;;;;63.42;35.42;;;;;;;;;;6122441;23;20454;-85
2023/12/07 07:20:08;;;;;;;64.05;37.38;;;;;;;;;;6096100;23;20049;-84
2023/12/07 07:22:34;;;;;;;60.20;36.60;;;;;;;;;;6096716;23;20002;-84
2023/12/07 07:24:59;;;;;;;73.68;41.83;;;;;;;;;;6121899;23;20427;-84
2023/12/07 07:27:25;;;;;;;87.32;46.90;;;;;;;;;;6122135;23;20001;-84
2023/12/07 07:29:50;;;;;;;116.53;57.22;;;;;;;;;;6095741;23;20002;-85
2023/12/07 07:32:16;;;;;;;116.40;60.53;;;;;;;;;;6122559;23;19998;-83
2023/12/07 07:34:42;;;;;;;121.35;64.20;;;;;;;;;;6096466;23;20065;-84
2023/12/07 07:37:08;;;;;;;120.40;63.58;;;;;;;;;;6097053;23;20008;-83
2023/12/07 07:39:34;;;;;;;237.30;116.15;;;;;;;;;;6096264;23;20009;-84
2023/12/07 07:42:00;;;;;;;169.40;91.18;;;;;;;;;;6121543;23;20442;-84
2023/12/07 07:44:25;;;;;;;178.27;96.20;;;;;;;;;;6096419;23;20033;-86
2023/12/07 07:46:50;;;;;;;166.45;91.95;;;;;;;;;;6096195;23;20338;-85
2023/12/07 07:49:15;;;;;;;188.55;97.38;;;;;;;;;;6096527;23;20053;-85
2023/12/07 07:51:41;;;;;;;214.60;111.30;;;;;;;;;;6095425;23;20115;-86
2023/12/07 07:54:06;;;;;;;193.40;111.30;;;;;;;;;;6096780;23;20002;-85
2023/12/07 07:56:31;;;;;;;204.25;108.75;;;;;;;;;;6134784;23;20339;-85
2023/12/07 07:58:59;;;;;;;181.75;97.45;;;;;;;;;;6108568;23;20391;-84
2023/12/07 08:01:25;;;;;;;177.68;99.47;;;;;;;;;;6104425;23;20009;-84
2023/12/07 08:03:50;;;;;;;175.57;103.07;;;;;;;;;;6126755;23;20010;-85
2023/12/07 08:06:15;;;;;;;187.48;104.97;;;;;;;;;;6098091;23;19998;-84
2023/12/07 08:08:41;;;;;;;312.27;163.02;;;;;;;;;;6122847;23;20077;-85
2023/12/07 08:11:06;;;;;;;469.20;231.75;;;;;;;;;;6098044;23;19998;-85
2023/12/07 08:13:32;;;;;;;133.18;72.68;;;;;;;;;;6098068;23;20013;-84
2023/12/07 08:15:57;;;;;;;156.70;90.55;;;;;;;;;;6097839;23;20006;-84
2023/12/07 08:18:22;;;;;;;172.68;98.50;;;;;;;;;;6098249;23;20427;-85
2023/12/07 08:20:48;;;;;;;173.80;97.45;;;;;;;;;;6098613;23;20002;-86
2023/12/07 08:23:16;;;;;;;215.18;119.55;;;;;;;;;;6097372;23;20002;-84
2023/12/07 08:25:43;;;;;;;194.52;111.47;;;;;;;;;;6123097;23;20005;-85
2023/12/07 08:28:09;;;;;;;172.65;97.55;;;;;;;;;;6096468;23;20442;-85
2023/12/07 08:30:34;;;;;;;171.30;96.82;;;;;;;;;;6097777;23;19997;-85
2023/12/07 08:33:00;;;;;;;186.20;101.72;;;;;;;;;;6097194;23;20002;-85
2023/12/07 08:35:25;;;;;;;179.90;100.30;;;;;;;;;;6096749;23;20002;-86
2023/12/07 08:37:51;;;;;;;183.43;102.78;;;;;;;;;;6097636;23;20461;-85
2023/12/07 08:40:17;;;;;;;175.57;101.45;;;;;;;;;;6123049;23;19990;-85
2023/12/07 08:42:45;;;;;;;180.55;107.38;;;;;;;;;;6123243;23;20018;-87
2023/12/07 08:45:10;;;;;;;209.93;123.00;;;;;;;;;;6097259;23;20009;-85
2023/12/07 08:47:36;;;;;;;173.00;103.13;;;;;;;;;;6122661;23;20002;-85
2023/12/07 08:50:01;;;;;;;170.63;102.10;;;;;;;;;;6097040;23;19998;-87
2023/12/07 08:52:27;;;;;;;190.23;102.40;;;;;;;;;;6122442;23;20474;-86
2023/12/07 08:54:52;;;;;;;197.63;110.50;;;;;;;;;;6097338;23;20009;-85
2023/12/07 08:57:17;;;;;;;243.80;131.15;;;;;;;;;;6097153;23;20006;-85
2023/12/07 08:59:44;;;;;;;234.55;130.70;;;;;;;;;;6123211;23;20360;-87
2023/12/07 09:02:11;;;;;;;225.45;123.15;;;;;;;;;;6123602;23;20002;-84
2023/12/07 09:04:37;;;;;;;215.73;120.13;;;;;;;;;;6096988;23;20002;-83
2023/12/07 09:07:02;;;;;;;276.58;146.40;;;;;;;;;;6096986;23;20076;-85
2023/12/07 09:09:27;;;;;;;322.27;178.32;;;;;;;;;;6096787;23;20074;-85
2023/12/07 09:11:53;;;;;;;268.27;148.45;;;;;;;;;;6097083;23;20429;-86
2023/12/07 09:14:18;;;;;;;230.48;131.20;;;;;;;;;;6122814;23;20048;-85
2023/12/07 09:16:44;;;;;;;185.05;108.55;;;;;;;;;;6097541;23;20462;-85
2023/12/07 09:19:10;;;;;;;179.20;103.85;;;;;;;;;;6097650;23;20320;-85
2023/12/07 09:21:35;;;;;;;185.63;105.68;;;;;;;;;;6096634;23;20017;-85
2023/12/07 09:24:01;;;;;;;184.85;107.78;;;;;;;;;;6097049;23;20028;-84
2023/12/07 09:26:27;;;;;;;179.07;100.45;;;;;;;;;;6097121;23;20419;-84
2023/12/07 09:28:52;;;;;;;180.15;105.53;;;;;;;;;;6123260;23;20020;-84
2023/12/07 09:31:18;;;;;;;161.35;98.28;;;;;;;;;;6096409;23;20075;-84
2023/12/07 09:33:45;;;;;;;175.50;97.90;;;;;;;;;;6097675;23;20029;-85
2023/12/07 09:36:11;;;;;;;147.85;85.80;;;;;;;;;;6122924;23;20006;-85
2023/12/07 09:38:37;;;;;;;147.18;87.03;;;;;;;;;;6096885;23;20002;-85
2023/12/07 09:41:03;;;;;;;163.30;99.72;;;;;;;;;;6122112;23;20093;-85
2023/12/07 09:43:28;;;;;;;292.50;148.82;;;;;;;;;;6072973;23;20021;-85
2023/12/07 09:45:54;;;;;;;254.23;137.43;;;;;;;;;;6122615;23;19994;-86
2023/12/07 09:48:19;;;;;;;291.13;150.93;;;;;;;;;;6122187;23;20073;-85
2023/12/07 09:50:44;;;;;;;292.00;153.98;;;;;;;;;;6095642;23;20005;-85
2023/12/07 09:53:10;;;;;;;372.63;202.60;;;;;;;;;;6096167;23;20033;-86
2023/12/07 09:55:35;;;;;;;307.83;167.57;;;;;;;;;;6096169;23;20086;-85
2023/12/07 09:58:01;;;;;;;390.90;204.02;;;;;;;;;;6122014;23;20006;-84
2023/12/07 10:00:26;;;;;;;300.83;164.30;;;;;;;;;;6096338;23;19998;-85
2023/12/07 10:02:51;;;;;;;180.77;107.28;;;;;;;;;;6095966;23;20308;-84
2023/12/07 10:05:17;;;;;;;224.35;130.27;;;;;;;;;;6096270;23;20002;-84
2023/12/07 10:07:49;;;;;;;217.30;123.53;;;;;;;;;;6095960;23;20001;-84
2023/12/07 10:10:15;;;;;;;339.65;190.73;;;;;;;;;;6121541;23;19994;-85
2023/12/07 10:12:46;;;;;;;321.67;180.85;;;;;;;;;;6095988;23;20370;-84
2023/12/07 10:15:15;;;;;;;424.85;252.90;;;;;;;;;;6095686;23;20056;-84
2023/12/07 10:17:53;;;;;;;443.85;271.63;;;;;;;;;;6095912;23;20265;-84
2023/12/07 10:20:23;;;;;;;528.28;323.17;;;;;;;;;;6121792;23;20001;-84
2023/12/07 10:22:49;;;;;;;572.60;368.73;;;;;;;;;;6096636;23;20008;-84
2023/12/07 10:25:14;;;;;;;586.38;363.58;;;;;;;;;;6104665;23;20025;-84
2023/12/07 10:27:40;;;;;;;589.45;379.15;;;;;;;;;;6112485;23;20402;-85
2023/12/07 10:30:06;;;;;;;543.42;339.63;;;;;;;;;;6104570;23;20002;-84
2023/12/07 10:32:32;;;;;;;463.48;284.15;;;;;;;;;;6104488;23;20451;-85
2023/12/07 10:35:01;;;;;;;449.40;273.27;;;;;;;;;;6121656;23;20012;-83
2023/12/07 10:37:26;;;;;;;460.27;281.48;;;;;;;;;;6120718;23;19998;-84
2023/12/07 10:39:51;;;;;;;442.42;284.85;;;;;;;;;;6096341;23;20012;-83
2023/12/07 10:42:18;;;;;;;378.23;229.10;;;;;;;;;;6120789;23;20010;-85
2023/12/07 10:44:44;;;;;;;324.85;206.02;;;;;;;;;;6121739;23;19998;-84
2023/12/07 10:47:10;;;;;;;283.55;179.45;;;;;;;;;;6096351;23;19998;-84
2023/12/07 10:49:36;;;;;;;293.42;174.13;;;;;;;;;;6096041;23;20509;-84
2023/12/07 10:52:03;;;;;;;282.58;168.43;;;;;;;;;;6120681;23;20000;-83
2023/12/07 10:54:33;;;;;;;282.23;167.05;;;;;;;;;;6121765;23;20008;-84
2023/12/07 10:57:02;;;;;;;;;;;;;;;;;;6096820;23;20025;-84
2023/12/07 10:59:28;;;;;;;239.75;142.38;;;;;;;;;;6095928;23;19901;-82
2023/12/07 11:01:54;;;;;;;253.30;152.10;;;;;;;;;;6095235;23;20032;-84
2023/12/07 11:04:20;;;;;;;232.32;141.25;;;;;;;;;;6095561;23;20002;-84
2023/12/07 11:06:49;;;;;;;278.13;162.48;;;;;;;;;;6094709;23;19998;-84
2023/12/07 11:09:16;;;;;;;284.45;162.77;;;;;;;;;;6121430;23;20065;-84
2023/12/07 11:11:54;;;;;;;261.35;151.63;;;;;;;;;;6095295;23;20002;-85
2023/12/07 11:14:20;;;;;;;238.02;141.93;;;;;;;;;;6120727;23;20005;-83
2023/12/07 11:16:46;;;;;;;249.45;146.63;;;;;;;;;;6095082;23;20002;-85
2023/12/07 11:19:35;;;;;;;275.00;158.80;;;;;;;;;;6094392;23;20030;-84
2023/12/07 11:22:07;;;;;;;280.65;160.38;;;;;;;;;;6120575;23;19997;-84
2023/12/07 11:24:32;;;;;;;249.93;148.85;;;;;;;;;;6094215;23;20081;-83
2023/12/07 11:26:58;;;;;;;236.27;140.68;;;;;;;;;;6095669;23;20029;-84
2023/12/07 11:29:28;;;;;;;222.35;133.98;;;;;;;;;;6123420;23;20024;-84
2023/12/07 11:32:00;;;;;;;243.57;146.00;;;;;;;;;;6072462;23;20040;-83
2023/12/07 11:34:38;;;;;;;287.95;171.18;;;;;;;;;;6096336;23;20002;-85
2023/12/07 11:37:04;;;;;;;337.83;213.13;;;;;;;;;;6123157;23;20025;-85
2023/12/07 11:39:34;;;;;;;261.15;159.88;;;;;;;;;;6096790;23;20437;-84
2023/12/07 11:42:06;;;;;;;243.48;148.82;;;;;;;;;;6123170;23;20466;-84
2023/12/07 11:44:36;;;;;;;217.07;135.32;;;;;;;;;;6093993;23;20006;-84
2023/12/07 11:47:02;;;;;;;217.02;136.65;;;;;;;;;;6120378;23;19998;-86
2023/12/07 11:49:28;;;;;;;226.43;134.45;;;;;;;;;;6094404;23;20060;-85
2023/12/07 11:51:54;;;;;;;227.88;138.13;;;;;;;;;;6094682;23;20002;-83
2023/12/07 11:54:19;;;;;;;248.65;151.65;;;;;;;;;;6059218;23;20559;-85
2023/12/07 11:56:44;;;;;;;264.88;161.32;;;;;;;;;;6034722;23;20131;-84
2023/12/07 11:59:10;;;;;;;290.08;177.55;;;;;;;;;;6034364;23;20042;-85
2023/12/07 12:01:35;;;;;;;271.92;161.07;;;;;;;;;;6034904;23;20046;-84
2023/12/07 12:04:00;;;;;;;260.48;159.25;;;;;;;;;;6034450;23;20007;-84
2023/12/07 12:06:26;;;;;;;319.90;184.07;;;;;;;;;;6034689;23;19999;-85
2023/12/07 12:08:52;;;;;;;228.23;136.43;;;;;;;;;;6033986;23;20027;-86
2023/12/07 12:11:18;;;;;;;297.20;188.82;;;;;;;;;;6038002;23;20079;-86
2023/12/07 12:13:45;;;;;;;242.95;141.85;;;;;;;;;;6037188;23;20010;-86
2023/12/07 12:16:11;;;;;;;412.05;255.23;;;;;;;;;;6035208;23;20387;-85
2023/12/07 12:18:37;;;;;;;119.20;85.85;;;;;;;;;;6038058;23;20021;-83
2023/12/07 12:21:02;;;;;;;86.60;64.68;;;;;;;;;;6037647;23;20229;-84
2023/12/07 12:23:28;;;;;;;45.83;31.42;;;;;;;;;;6038503;23;20009;-85
2023/12/07 12:25:54;;;;;;;92.55;66.15;;;;;;;;;;6107612;23;19998;-85
2023/12/07 12:28:22;;;;;;;60.10;42.38;;;;;;;;;;6072620;23;20006;-84
2023/12/07 12:30:47;;;;;;;80.35;53.50;;;;;;;;;;6122077;23;20430;-84
2023/12/07 12:33:14;;;;;;;62.85;41.40;;;;;;;;;;6096351;23;19998;-86
2023/12/07 12:35:40;;;;;;;53.60;35.42;;;;;;;;;;6096803;23;20002;-85
2023/12/07 12:38:10;;;;;;;58.65;38.83;;;;;;;;;;6096266;23;20013;-84
2023/12/07 12:40:36;;;;;;;92.90;56.08;;;;;;;;;;6094731;23;20025;-85
2023/12/07 12:43:01;;;;;;;97.43;61.90;;;;;;;;;;6096150;23;20005;-86
2023/12/07 12:45:27;;;;;;;163.18;104.53;;;;;;;;;;6121735;23;20711;-85
2023/12/07 12:47:58;;;;;;;95.15;64.05;;;;;;;;;;6096371;23;20005;-84
2023/12/07 12:50:41;;;;;;;151.77;70.75;;;;;;;;;;6096443;23;20001;-85
2023/12/07 12:53:10;;;;;;;136.63;70.70;;;;;;;;;;6096803;23;20446;-83
2023/12/07 12:55:37;;;;;;;72.15;47.15;;;;;;;;;;6096065;23;20343;-85
2023/12/07 12:58:04;;;;;;;91.78;58.60;;;;;;;;;;6096255;23;20357;-84
2023/12/07 13:00:29;;;;;;;93.85;62.72;;;;;;;;;;6095720;23;20061;-85
2023/12/07 13:02:55;;;;;;;80.15;55.15;;;;;;;;;;6113320;23;20005;-86
2023/12/07 13:05:20;;;;;;;93.90;62.25;;;;;;;;;;6114377;23;20022;-85
2023/12/07 13:07:50;;;;;;;97.40;66.18;;;;;;;;;;6100332;23;19998;-86
2023/12/07 13:10:16;;;;;;;96.35;67.72;;;;;;;;;;6123808;23;20419;-87
2023/12/07 13:12:41;;;;;;;213.98;119.80;;;;;;;;;;6095844;23;20081;-85
2023/12/07 13:15:07;;;;;;;139.18;86.43;;;;;;;;;;6097085;23;20002;-87
2023/12/07 13:17:33;;;;;;;107.75;71.65;;;;;;;;;;6096381;23;20009;-87
2023/12/07 13:19:58;;;;;;;147.52;88.13;;;;;;;;;;6096784;23;20008;-84
2023/12/07 13:22:25;;;;;;;188.15;104.07;;;;;;;;;;6095331;23;20342;-85
2023/12/07 13:24:50;;;;;;;143.38;82.40;;;;;;;;;;6096086;23;19998;-84
2023/12/07 13:27:16;;;;;;;158.65;78.00;;;;;;;;;;6097613;23;20002;-84
2023/12/07 13:29:41;;;;;;;98.00;54.78;;;;;;;;;;6121869;23;19994;-84
2023/12/07 13:32:07;;;;;;;132.88;66.80;;;;;;;;;;6071341;23;20002;-83
2023/12/07 13:34:32;;;;;;;312.50;188.52;;;;;;;;;;6096038;23;20029;-84
2023/12/07 13:36:58;;;;;;;150.80;92.53;;;;;;;;;;6095664;23;20006;-84
2023/12/07 13:39:23;;;;;;;138.00;87.35;;;;;;;;;;6096420;23;20088;-84
2023/12/07 13:41:49;;;;;;;210.77;121.70;;;;;;;;;;6121247;23;20379;-84
2023/12/07 13:44:17;;;;;;;122.22;71.30;;;;;;;;;;6072779;23;20406;-84
2023/12/07 13:46:42;;;;;;;82.65;51.60;;;;;;;;;;6096496;23;20297;-86
2023/12/07 13:49:08;;;;;;;93.28;56.88;;;;;;;;;;6096178;23;20073;-84
2023/12/07 13:51:33;;;;;;;128.57;73.18;;;;;;;;;;6095794;23;20068;-84
2023/12/07 13:53:59;;;;;;;137.70;79.20;;;;;;;;;;6096183;23;20009;-84
2023/12/07 13:56:24;;;;;;;110.50;69.85;;;;;;;;;;6121667;23;20101;-85
2023/12/07 13:58:50;;;;;;;123.40;84.30;;;;;;;;;;6095431;23;20008;-84